createdAt,value
2018-06-15T00:00:39.051Z,0.00
2018-06-15T00:01:38.994Z,0.00
2018-06-15T00:02:38.938Z,0.00
2018-06-15T00:03:38.882Z,0.00
2018-06-15T00:04:38.823Z,0.00
2018-06-15T00:05:38.767Z,0.00
2018-06-15T00:06:38.714Z,0.00
2018-06-15T00:07:38.654Z,0.00
2018-06-15T00:08:38.599Z,0.00
2018-06-15T00:09:38.545Z,0.00
2018-06-15T00:10:38.486Z,0.00
2018-06-15T00:11:38.431Z,0.00
2018-06-15T00:12:38.379Z,0.00
2018-06-15T00:13:38.322Z,0.00
2018-06-15T00:14:38.259Z,0.00
2018-06-15T00:15:38.204Z,0.00
2018-06-15T00:16:38.152Z,0.00
2018-06-15T00:17:38.090Z,0.00
2018-06-15T00:18:38.034Z,0.00
2018-06-15T00:19:37.976Z,0.00
2018-06-15T00:20:37.920Z,0.00
2018-06-15T00:21:37.865Z,0.00
2018-06-15T00:22:37.809Z,0.00
2018-06-15T00:23:37.749Z,0.00
2018-06-15T00:24:37.692Z,0.00
2018-06-15T00:25:37.636Z,0.00
2018-06-15T00:26:37.580Z,0.00
2018-06-15T00:27:37.540Z,0.00
2018-06-15T00:28:37.468Z,0.00
2018-06-15T00:29:37.432Z,0.00
2018-06-15T00:30:37.354Z,0.00
2018-06-15T00:31:37.297Z,0.00
2018-06-15T00:32:37.240Z,0.00
2018-06-15T00:33:37.186Z,0.00
2018-06-15T00:34:37.127Z,0.00
2018-06-15T00:35:37.072Z,0.00
2018-06-15T00:36:37.014Z,0.00
2018-06-15T00:37:36.957Z,0.00
2018-06-15T00:38:36.904Z,0.00
2018-06-15T00:39:36.842Z,0.00
2018-06-15T00:40:36.787Z,0.00
2018-06-15T00:41:36.730Z,0.00
2018-06-15T00:42:36.674Z,0.00
2018-06-15T00:43:36.617Z,0.00
2018-06-15T00:44:36.561Z,0.00
2018-06-15T00:45:36.517Z,0.00
2018-06-15T00:46:36.455Z,0.00
2018-06-15T00:47:36.389Z,0.00
2018-06-15T00:48:36.333Z,0.00
2018-06-15T00:49:36.277Z,0.00
2018-06-15T00:50:36.222Z,0.00
2018-06-15T00:51:36.164Z,0.00
2018-06-15T00:52:36.107Z,0.00
2018-06-15T00:53:36.054Z,0.00
2018-06-15T00:54:35.996Z,0.00
2018-06-15T00:55:35.955Z,0.00
2018-06-15T00:56:35.880Z,0.00
2018-06-15T00:57:35.826Z,0.00
2018-06-15T00:58:35.773Z,0.00
2018-06-15T00:59:35.711Z,0.00
2018-06-15T01:00:35.657Z,0.00
2018-06-15T01:01:35.596Z,0.00
2018-06-15T01:02:35.540Z,0.00
2018-06-15T01:03:35.482Z,0.00
2018-06-15T01:04:35.428Z,0.00
2018-06-15T01:05:35.370Z,0.00
2018-06-15T01:06:35.314Z,0.00
2018-06-15T01:07:35.255Z,0.00
2018-06-15T01:08:35.198Z,0.00
2018-06-15T01:09:35.143Z,0.00
2018-06-15T01:10:35.088Z,0.00
2018-06-15T01:11:35.027Z,0.00
2018-06-15T01:12:34.985Z,0.00
2018-06-15T01:13:34.918Z,0.00
2018-06-15T01:14:34.862Z,0.00
2018-06-15T01:15:34.801Z,0.00
2018-06-15T01:16:34.744Z,0.00
2018-06-15T01:17:34.689Z,0.00
2018-06-15T01:18:34.644Z,0.00
2018-06-15T01:19:34.573Z,0.00
2018-06-15T01:20:34.536Z,0.00
2018-06-15T01:21:34.465Z,0.00
2018-06-15T01:22:34.406Z,0.00
2018-06-15T01:23:34.349Z,0.00
2018-06-15T01:24:34.295Z,0.00
2018-06-15T01:25:34.233Z,0.00
2018-06-15T01:26:34.180Z,0.00
2018-06-15T01:27:34.119Z,0.00
2018-06-15T01:28:34.063Z,0.00
2018-06-15T01:29:34.008Z,0.00
2018-06-15T01:30:33.973Z,0.00
2018-06-15T01:31:33.893Z,0.00
2018-06-15T01:32:33.834Z,0.00
2018-06-15T01:33:33.793Z,0.00
2018-06-15T01:34:33.721Z,0.00
2018-06-15T01:35:33.668Z,0.00
2018-06-15T01:36:33.608Z,0.00
2018-06-15T01:37:33.553Z,0.00
2018-06-15T01:38:33.494Z,0.00
2018-06-15T01:39:33.436Z,0.00
2018-06-15T01:40:33.395Z,0.00
2018-06-15T01:41:33.323Z,0.00
2018-06-15T01:42:33.265Z,0.00
2018-06-15T01:43:33.207Z,0.00
2018-06-15T01:44:33.171Z,0.00
2018-06-15T01:45:33.103Z,0.00
2018-06-15T01:46:33.037Z,0.00
2018-06-15T01:47:32.982Z,0.00
2018-06-15T01:48:32.922Z,0.00
2018-06-15T01:49:32.871Z,0.00
2018-06-15T01:50:32.809Z,0.00
2018-06-15T01:51:32.764Z,0.00
2018-06-15T01:52:32.693Z,0.00
2018-06-15T01:53:32.637Z,0.00
2018-06-15T01:54:32.581Z,0.00
2018-06-15T01:55:32.524Z,0.00
2018-06-15T01:56:32.471Z,0.00
2018-06-15T01:57:32.413Z,0.00
2018-06-15T01:58:32.365Z,0.00
2018-06-15T01:59:32.297Z,0.00
2018-06-15T02:00:32.240Z,0.00
2018-06-15T02:01:32.185Z,0.00
2018-06-15T02:02:32.130Z,0.00
2018-06-15T02:03:32.068Z,0.00
2018-06-15T02:04:32.013Z,0.00
2018-06-15T02:05:31.954Z,0.00
2018-06-15T02:06:31.898Z,0.00
2018-06-15T02:07:31.841Z,0.00
2018-06-15T02:08:31.784Z,0.00
2018-06-15T02:09:31.730Z,0.00
2018-06-15T02:10:31.675Z,0.00
2018-06-15T02:11:31.616Z,0.00
2018-06-15T02:12:31.555Z,0.00
2018-06-15T02:13:31.592Z,0.00
2018-06-15T02:14:31.443Z,0.00
2018-06-15T02:15:31.385Z,0.00
2018-06-15T02:16:31.329Z,0.00
2018-06-15T02:17:31.272Z,0.00
2018-06-15T02:18:31.218Z,0.00
2018-06-15T02:19:31.157Z,0.00
2018-06-15T02:20:31.102Z,0.00
2018-06-15T02:21:31.045Z,0.00
2018-06-15T02:22:30.990Z,0.00
2018-06-15T02:23:30.930Z,0.00
2018-06-15T02:24:30.873Z,0.00
2018-06-15T02:25:30.818Z,0.00
2018-06-15T02:26:30.761Z,0.00
2018-06-15T02:27:30.705Z,0.00
2018-06-15T02:28:30.651Z,0.00
2018-06-15T02:29:30.591Z,0.00
2018-06-15T02:30:30.537Z,0.00
2018-06-15T02:31:30.477Z,0.00
2018-06-15T02:32:30.420Z,0.00
2018-06-15T02:33:30.366Z,0.00
2018-06-15T02:34:30.307Z,0.00
2018-06-15T02:35:30.250Z,0.00
2018-06-15T02:36:30.192Z,0.00
2018-06-15T02:37:30.138Z,0.00
2018-06-15T02:38:30.080Z,0.00
2018-06-15T02:39:30.024Z,0.00
2018-06-15T02:40:29.965Z,0.00
2018-06-15T02:41:29.910Z,0.00
2018-06-15T02:42:29.851Z,0.00
2018-06-15T02:43:29.795Z,0.00
2018-06-15T02:44:29.738Z,0.00
2018-06-15T02:45:29.739Z,0.00
2018-06-15T02:46:29.625Z,0.00
2018-06-15T02:47:29.569Z,0.00
2018-06-15T02:48:29.511Z,0.00
2018-06-15T02:49:29.454Z,0.00
2018-06-15T02:50:29.399Z,0.00
2018-06-15T02:51:29.340Z,0.00
2018-06-15T02:52:29.283Z,0.00
2018-06-15T02:53:29.227Z,0.00
2018-06-15T02:54:29.170Z,0.00
2018-06-15T02:55:29.113Z,0.00
2018-06-15T02:56:29.058Z,0.00
2018-06-15T02:57:29.002Z,0.00
2018-06-15T02:58:28.947Z,0.00
2018-06-15T02:59:28.884Z,0.00
2018-06-15T03:00:28.831Z,0.00
2018-06-15T03:01:28.773Z,0.00
2018-06-15T03:02:28.716Z,0.00
2018-06-15T03:03:28.656Z,0.00
2018-06-15T03:04:28.600Z,0.00
2018-06-15T03:05:28.544Z,0.00
2018-06-15T03:06:28.490Z,0.00
2018-06-15T03:07:28.428Z,0.00
2018-06-15T03:08:28.376Z,0.00
2018-06-15T03:09:28.315Z,0.00
2018-06-15T03:10:28.258Z,0.00
2018-06-15T03:11:28.205Z,0.00
2018-06-15T03:12:28.144Z,0.00
2018-06-15T03:13:28.088Z,0.00
2018-06-15T03:14:28.032Z,0.00
2018-06-15T03:15:27.973Z,0.00
2018-06-15T03:16:27.920Z,0.00
2018-06-15T03:17:27.858Z,0.00
2018-06-15T03:18:27.803Z,0.00
2018-06-15T03:19:27.755Z,0.00
2018-06-15T03:20:27.686Z,0.00
2018-06-15T03:21:27.630Z,0.00
2018-06-15T03:22:27.572Z,0.00
2018-06-15T03:23:27.513Z,0.00
2018-06-15T03:24:27.456Z,0.00
2018-06-15T03:25:27.403Z,0.00
2018-06-15T03:26:27.345Z,0.00
2018-06-15T03:27:27.288Z,0.00
2018-06-15T03:28:27.229Z,0.00
2018-06-15T03:29:27.171Z,0.00
2018-06-15T03:30:27.119Z,0.00
2018-06-15T03:31:27.056Z,0.00
2018-06-15T03:32:26.997Z,0.00
2018-06-15T03:33:26.941Z,0.00
2018-06-15T03:34:26.884Z,5.63
2018-06-15T03:35:26.828Z,5.63
2018-06-15T03:36:26.774Z,5.63
2018-06-15T03:37:26.712Z,5.63
2018-06-15T03:38:26.655Z,5.63
2018-06-15T03:39:26.603Z,5.63
2018-06-15T03:40:26.540Z,5.63
2018-06-15T03:41:26.485Z,5.63
2018-06-15T03:42:26.430Z,5.63
2018-06-15T03:43:26.369Z,5.63
2018-06-15T03:44:26.310Z,5.63
2018-06-15T03:45:26.255Z,5.63
2018-06-15T03:46:26.197Z,5.63
2018-06-15T03:47:26.139Z,5.63
2018-06-15T03:48:26.081Z,5.63
2018-06-15T03:49:26.026Z,5.63
2018-06-15T03:50:25.969Z,11.25
2018-06-15T03:51:25.911Z,11.25
2018-06-15T03:52:25.851Z,11.25
2018-06-15T03:53:25.795Z,11.25
2018-06-15T03:54:25.739Z,11.25
2018-06-15T03:55:25.679Z,11.25
2018-06-15T03:56:25.624Z,11.25
2018-06-15T03:57:25.568Z,11.25
2018-06-15T03:58:25.511Z,11.25
2018-06-15T03:59:25.452Z,11.25
2018-06-15T04:00:25.393Z,11.25
2018-06-15T04:01:25.339Z,11.25
2018-06-15T04:02:25.281Z,11.25
2018-06-15T04:03:25.224Z,11.25
2018-06-15T04:04:25.166Z,11.25
2018-06-15T04:05:25.113Z,11.25
2018-06-15T04:06:25.053Z,11.25
2018-06-15T04:07:24.996Z,11.25
2018-06-15T04:08:24.937Z,16.88
2018-06-15T04:09:24.880Z,16.88
2018-06-15T04:10:24.823Z,16.88
2018-06-15T04:11:24.768Z,16.88
2018-06-15T04:12:24.709Z,16.88
2018-06-15T04:13:24.653Z,16.88
2018-06-15T04:14:24.597Z,16.88
2018-06-15T04:15:24.541Z,16.88
2018-06-15T04:16:24.484Z,16.88
2018-06-15T04:17:24.431Z,22.50
2018-06-15T04:18:24.367Z,22.50
2018-06-15T04:19:24.308Z,22.50
2018-06-15T04:20:24.252Z,22.50
2018-06-15T04:21:24.201Z,22.50
2018-06-15T04:22:24.144Z,22.50
2018-06-15T04:23:24.090Z,28.13
2018-06-15T04:24:24.042Z,28.13
2018-06-15T04:25:23.973Z,28.13
2018-06-15T04:26:23.911Z,28.13
2018-06-15T04:27:23.853Z,28.13
2018-06-15T04:28:23.797Z,28.13
2018-06-15T04:29:23.740Z,33.75
2018-06-15T04:30:23.683Z,33.75
2018-06-15T04:31:23.634Z,33.75
2018-06-15T04:32:23.570Z,33.75
2018-06-15T04:33:23.514Z,33.75
2018-06-15T04:34:23.456Z,33.75
2018-06-15T04:35:23.407Z,33.75
2018-06-15T04:36:23.342Z,33.75
2018-06-15T04:37:23.328Z,33.75
2018-06-15T04:38:23.233Z,33.75
2018-06-15T04:39:23.173Z,39.38
2018-06-15T04:40:23.115Z,39.38
2018-06-15T04:41:23.069Z,39.38
2018-06-15T04:42:23.007Z,39.38
2018-06-15T04:43:22.945Z,39.38
2018-06-15T04:44:22.892Z,39.38
2018-06-15T04:45:22.833Z,39.38
2018-06-15T04:46:22.777Z,39.38
2018-06-15T04:47:22.720Z,39.38
2018-06-15T04:48:22.665Z,39.38
2018-06-15T04:49:22.606Z,39.38
2018-06-15T04:50:22.550Z,45.00
2018-06-15T04:51:22.491Z,45.00
2018-06-15T04:52:22.436Z,45.00
2018-06-15T04:53:22.389Z,45.00
2018-06-15T04:54:22.327Z,45.00
2018-06-15T04:55:22.267Z,45.00
2018-06-15T04:56:22.285Z,45.00
2018-06-15T04:57:22.154Z,45.00
2018-06-15T04:58:22.098Z,45.00
2018-06-15T04:59:22.043Z,45.00
2018-06-15T05:00:21.985Z,45.00
2018-06-15T05:01:21.928Z,45.00
2018-06-15T05:02:21.875Z,45.00
2018-06-15T05:03:21.813Z,45.00
2018-06-15T05:04:21.758Z,45.00
2018-06-15T05:05:21.707Z,45.00
2018-06-15T05:06:21.649Z,45.00
2018-06-15T05:07:21.590Z,45.00
2018-06-15T05:08:21.534Z,50.63
2018-06-15T05:09:21.479Z,50.63
2018-06-15T05:10:21.422Z,50.63
2018-06-15T05:11:21.364Z,50.63
2018-06-15T05:12:21.307Z,50.63
2018-06-15T05:13:21.253Z,61.88
2018-06-15T05:14:21.200Z,56.25
2018-06-15T05:15:21.139Z,56.25
2018-06-15T05:16:21.085Z,56.25
2018-06-15T05:17:21.054Z,61.88
2018-06-15T05:18:20.969Z,61.88
2018-06-15T05:19:20.913Z,61.88
2018-06-15T05:20:20.862Z,67.50
2018-06-15T05:21:20.802Z,67.50
2018-06-15T05:22:20.747Z,67.50
2018-06-15T05:23:20.690Z,73.13
2018-06-15T05:24:20.634Z,73.13
2018-06-15T05:25:20.577Z,78.75
2018-06-15T05:26:20.521Z,78.75
2018-06-15T05:27:20.468Z,78.75
2018-06-15T05:28:20.410Z,78.75
2018-06-15T05:29:20.353Z,84.38
2018-06-15T05:30:20.299Z,84.38
2018-06-15T05:31:20.242Z,84.38
2018-06-15T05:32:20.193Z,84.38
2018-06-15T05:33:20.134Z,84.38
2018-06-15T05:34:20.073Z,84.38
2018-06-15T05:35:20.037Z,84.38
2018-06-15T05:36:19.962Z,84.38
2018-06-15T05:37:19.906Z,90.00
2018-06-15T05:38:19.848Z,90.00
2018-06-15T05:39:19.794Z,90.00
2018-06-15T05:40:19.738Z,90.00
2018-06-15T05:41:19.681Z,90.00
2018-06-15T05:42:19.627Z,90.00
2018-06-15T05:43:19.570Z,90.00
2018-06-15T05:44:19.514Z,90.00
2018-06-15T05:45:19.461Z,95.63
2018-06-15T05:46:19.408Z,95.63
2018-06-15T05:47:19.350Z,95.63
2018-06-15T05:48:19.296Z,95.63
2018-06-15T05:49:19.237Z,95.63
2018-06-15T05:50:19.184Z,95.63
2018-06-15T05:51:19.127Z,95.63
2018-06-15T05:52:19.072Z,95.63
2018-06-15T05:53:19.017Z,95.63
2018-06-15T05:54:18.962Z,95.63
2018-06-15T05:55:18.908Z,101.25
2018-06-15T05:56:18.854Z,101.25
2018-06-15T05:57:18.799Z,101.25
2018-06-15T05:58:18.747Z,101.25
2018-06-15T05:59:18.686Z,106.88
2018-06-15T06:00:18.640Z,106.88
2018-06-15T06:01:18.583Z,106.88
2018-06-15T06:02:18.529Z,106.88
2018-06-15T06:03:18.468Z,112.50
2018-06-15T06:04:18.420Z,112.50
2018-06-15T06:05:18.366Z,112.50
2018-06-15T06:06:18.304Z,118.13
2018-06-15T06:07:18.251Z,118.13
2018-06-15T06:08:18.195Z,118.13
2018-06-15T06:09:18.142Z,118.13
2018-06-15T06:10:18.091Z,118.13
2018-06-15T06:11:18.033Z,123.75
2018-06-15T06:12:17.985Z,123.75
2018-06-15T06:13:17.924Z,123.75
2018-06-15T06:14:17.871Z,123.75
2018-06-15T06:15:17.814Z,123.75
2018-06-15T06:16:17.761Z,123.75
2018-06-15T06:17:17.707Z,129.38
2018-06-15T06:18:17.651Z,129.38
2018-06-15T06:19:17.596Z,129.38
2018-06-15T06:20:17.543Z,129.38
2018-06-15T06:21:17.490Z,129.38
2018-06-15T06:22:17.436Z,129.38
2018-06-15T06:23:17.381Z,129.38
2018-06-15T06:24:17.326Z,129.38
2018-06-15T06:25:17.273Z,129.38
2018-06-15T06:26:17.220Z,129.38
2018-06-15T06:27:17.165Z,129.38
2018-06-15T06:28:17.111Z,129.38
2018-06-15T06:29:17.059Z,129.38
2018-06-15T06:30:17.054Z,129.38
2018-06-15T06:31:16.956Z,129.38
2018-06-15T06:32:16.895Z,135.00
2018-06-15T06:33:16.844Z,129.38
2018-06-15T06:34:16.787Z,129.38
2018-06-15T06:35:16.733Z,129.38
2018-06-15T06:36:16.683Z,129.38
2018-06-15T06:37:16.627Z,129.38
2018-06-15T06:38:16.581Z,129.38
2018-06-15T06:39:16.519Z,129.38
2018-06-15T06:40:16.470Z,129.38
2018-06-15T06:41:16.410Z,129.38
2018-06-15T06:42:16.358Z,129.38
2018-06-15T06:43:16.304Z,129.38
2018-06-15T06:44:16.249Z,129.38
2018-06-15T06:45:16.196Z,135.00
2018-06-15T06:46:16.144Z,129.38
2018-06-15T06:47:16.091Z,129.38
2018-06-15T06:48:16.036Z,129.38
2018-06-15T06:49:15.984Z,135.00
2018-06-15T06:50:15.931Z,129.38
2018-06-15T06:51:15.876Z,129.38
2018-06-15T06:52:15.822Z,123.75
2018-06-15T06:53:15.768Z,123.75
2018-06-15T06:54:15.719Z,123.75
2018-06-15T06:55:15.658Z,123.75
2018-06-15T06:56:16.531Z,123.75
2018-06-15T06:57:15.552Z,123.75
2018-06-15T06:58:15.500Z,123.75
2018-06-15T06:59:15.452Z,123.75
2018-06-15T07:00:15.395Z,123.75
2018-06-15T07:01:15.337Z,123.75
2018-06-15T07:02:15.291Z,123.75
2018-06-15T07:03:15.259Z,123.75
2018-06-15T07:04:15.176Z,123.75
2018-06-15T07:05:15.129Z,123.75
2018-06-15T07:06:15.129Z,123.75
2018-06-15T07:07:15.016Z,129.38
2018-06-15T07:08:14.962Z,129.38
2018-06-15T07:09:14.913Z,129.38
2018-06-15T07:10:14.858Z,129.38
2018-06-15T07:11:14.806Z,129.38
2018-06-15T07:12:14.749Z,129.38
2018-06-15T07:13:14.746Z,129.38
2018-06-15T07:14:14.643Z,129.38
2018-06-15T07:15:14.589Z,129.38
2018-06-15T07:16:14.536Z,129.38
2018-06-15T07:17:14.482Z,129.38
2018-06-15T07:18:14.434Z,129.38
2018-06-15T07:19:14.377Z,129.38
2018-06-15T07:20:14.323Z,129.38
2018-06-15T07:21:14.271Z,129.38
2018-06-15T07:22:14.217Z,129.38
2018-06-15T07:23:14.166Z,129.38
2018-06-15T07:24:14.113Z,129.38
2018-06-15T07:25:14.059Z,129.38
2018-06-15T07:26:14.007Z,129.38
2018-06-15T07:27:13.956Z,129.38
2018-06-15T07:28:13.904Z,129.38
2018-06-15T07:29:13.846Z,129.38
2018-06-15T07:30:13.794Z,129.38
2018-06-15T07:31:13.740Z,129.38
2018-06-15T07:32:13.709Z,129.38
2018-06-15T07:33:13.635Z,135.00
2018-06-15T07:34:13.583Z,135.00
2018-06-15T07:35:13.529Z,135.00
2018-06-15T07:36:13.478Z,135.00
2018-06-15T07:37:13.429Z,135.00
2018-06-15T07:38:13.374Z,140.63
2018-06-15T07:39:13.320Z,140.63
2018-06-15T07:40:13.269Z,140.63
2018-06-15T07:41:13.216Z,140.63
2018-06-15T07:42:13.164Z,140.63
2018-06-15T07:43:13.109Z,140.63
2018-06-15T07:44:13.058Z,140.63
2018-06-15T07:45:13.011Z,140.63
2018-06-15T07:46:13.014Z,140.63
2018-06-15T07:47:12.901Z,140.63
2018-06-15T07:48:12.847Z,140.63
2018-06-15T07:49:12.802Z,146.25
2018-06-15T07:50:12.744Z,140.63
2018-06-15T07:51:12.694Z,140.63
2018-06-15T07:52:12.640Z,140.63
2018-06-15T07:53:12.586Z,140.63
2018-06-15T07:54:12.535Z,140.63
2018-06-15T07:55:12.482Z,140.63
2018-06-15T07:56:12.431Z,140.63
2018-06-15T07:57:12.378Z,140.63
2018-06-15T07:58:12.326Z,140.63
2018-06-15T07:59:12.273Z,140.63
2018-06-15T08:00:12.231Z,135.00
2018-06-15T08:01:12.170Z,135.00
2018-06-15T08:02:12.120Z,135.00
2018-06-15T08:03:12.065Z,140.63
2018-06-15T08:04:12.016Z,140.63
2018-06-15T08:05:11.961Z,135.00
2018-06-15T08:06:11.911Z,140.63
2018-06-15T08:07:11.859Z,140.63
2018-06-15T08:08:11.806Z,140.63
2018-06-15T08:09:11.762Z,140.63
2018-06-15T08:10:11.728Z,135.00
2018-06-15T08:11:11.650Z,135.00
2018-06-15T08:12:11.609Z,135.00
2018-06-15T08:13:11.547Z,135.00
2018-06-15T08:14:11.495Z,140.63
2018-06-15T08:15:11.445Z,140.63
2018-06-15T08:16:11.392Z,140.63
2018-06-15T08:17:11.346Z,140.63
2018-06-15T08:18:11.287Z,140.63
2018-06-15T08:19:11.236Z,140.63
2018-06-15T08:20:11.184Z,140.63
2018-06-15T08:21:11.133Z,140.63
2018-06-15T08:22:11.085Z,146.25
2018-06-15T08:23:11.031Z,140.63
2018-06-15T08:24:10.982Z,146.25
2018-06-15T08:25:10.927Z,146.25
2018-06-15T08:26:10.875Z,146.25
2018-06-15T08:27:10.824Z,146.25
2018-06-15T08:28:10.773Z,146.25
2018-06-15T08:29:10.722Z,146.25
2018-06-15T08:30:10.671Z,151.88
2018-06-15T08:31:10.620Z,151.88
2018-06-15T08:32:10.570Z,151.88
2018-06-15T08:33:10.534Z,146.25
2018-06-15T08:34:10.466Z,146.25
2018-06-15T08:35:10.414Z,140.63
2018-06-15T08:36:10.362Z,140.63
2018-06-15T08:37:10.313Z,140.63
2018-06-15T08:38:10.260Z,146.25
2018-06-15T08:39:10.210Z,140.63
2018-06-15T08:40:10.159Z,140.63
2018-06-15T08:41:10.112Z,140.63
2018-06-15T08:42:10.058Z,140.63
2018-06-15T08:43:10.007Z,140.63
2018-06-15T08:44:09.955Z,140.63
2018-06-15T08:45:09.905Z,140.63
2018-06-15T08:46:09.855Z,140.63
2018-06-15T08:47:09.810Z,140.63
2018-06-15T08:48:09.751Z,140.63
2018-06-15T08:49:09.703Z,140.63
2018-06-15T08:50:09.650Z,140.63
2018-06-15T08:51:09.598Z,140.63
2018-06-15T08:52:09.547Z,140.63
2018-06-15T08:53:09.496Z,146.25
2018-06-15T08:54:09.450Z,146.25
2018-06-15T08:55:09.393Z,146.25
2018-06-15T08:56:09.347Z,146.25
2018-06-15T08:57:09.296Z,146.25
2018-06-15T08:58:09.241Z,146.25
2018-06-15T08:59:09.190Z,140.63
2018-06-15T09:00:09.140Z,140.63
2018-06-15T09:01:09.088Z,140.63
2018-06-15T09:02:09.037Z,140.63
2018-06-15T09:03:08.987Z,140.63
2018-06-15T09:04:08.936Z,140.63
2018-06-15T09:05:08.885Z,140.63
2018-06-15T09:06:08.834Z,140.63
2018-06-15T09:07:08.785Z,140.63
2018-06-15T09:08:08.731Z,140.63
2018-06-15T09:09:08.681Z,140.63
2018-06-15T09:10:08.631Z,140.63
2018-06-15T09:11:08.600Z,140.63
2018-06-15T09:12:08.528Z,140.63
2018-06-15T09:13:08.477Z,140.63
2018-06-15T09:14:08.428Z,140.63
2018-06-15T09:15:08.399Z,140.63
2018-06-15T09:16:08.325Z,135.00
2018-06-15T09:17:08.277Z,135.00
2018-06-15T09:18:08.281Z,135.00
2018-06-15T09:19:08.170Z,135.00
2018-06-15T09:20:08.121Z,135.00
2018-06-15T09:21:08.072Z,135.00
2018-06-15T09:22:08.021Z,135.00
2018-06-15T09:23:07.967Z,140.63
2018-06-15T09:24:07.926Z,140.63
2018-06-15T09:25:07.866Z,140.63
2018-06-15T09:26:07.815Z,140.63
2018-06-15T09:27:07.765Z,146.25
2018-06-15T09:28:07.715Z,146.25
2018-06-15T09:29:07.668Z,146.25
2018-06-15T09:30:07.615Z,146.25
2018-06-15T09:31:07.563Z,151.88
2018-06-15T09:32:07.513Z,157.50
2018-06-15T09:33:07.463Z,157.50
2018-06-15T09:34:07.413Z,151.88
2018-06-15T09:35:07.363Z,151.88
2018-06-15T09:36:07.317Z,157.50
2018-06-15T09:37:07.263Z,157.50
2018-06-15T09:38:07.210Z,163.13
2018-06-15T09:39:07.161Z,163.13
2018-06-15T09:40:07.110Z,163.13
2018-06-15T09:41:07.060Z,163.13
2018-06-15T09:42:07.011Z,163.13
2018-06-15T09:43:06.967Z,163.13
2018-06-15T09:44:06.908Z,168.75
2018-06-15T09:45:06.858Z,168.75
2018-06-15T09:46:06.812Z,163.13
2018-06-15T09:47:06.758Z,157.50
2018-06-15T09:48:06.708Z,157.50
2018-06-15T09:49:06.659Z,151.88
2018-06-15T09:50:06.609Z,151.88
2018-06-15T09:51:06.558Z,146.25
2018-06-15T09:52:06.507Z,151.88
2018-06-15T09:53:06.460Z,151.88
2018-06-15T09:54:06.408Z,146.25
2018-06-15T09:55:06.358Z,146.25
2018-06-15T09:56:06.307Z,146.25
2018-06-15T09:57:06.257Z,151.88
2018-06-15T09:58:06.208Z,157.50
2018-06-15T09:59:06.157Z,157.50
2018-06-15T10:00:06.113Z,157.50
2018-06-15T10:01:06.058Z,157.50
2018-06-15T10:02:06.007Z,157.50
2018-06-15T10:03:05.956Z,157.50
2018-06-15T10:04:05.913Z,163.13
2018-06-15T10:05:05.856Z,163.13
2018-06-15T10:06:05.852Z,163.13
2018-06-15T10:07:05.756Z,174.38
2018-06-15T10:08:05.712Z,174.38
2018-06-15T10:09:05.659Z,168.75
2018-06-15T10:10:05.613Z,163.13
2018-06-15T10:11:05.558Z,163.13
2018-06-15T10:12:05.509Z,168.75
2018-06-15T10:13:05.459Z,185.63
2018-06-15T10:14:05.410Z,180.00
2018-06-15T10:15:05.362Z,174.38
2018-06-15T10:16:05.314Z,174.38
2018-06-15T10:17:05.262Z,168.75
2018-06-15T10:18:05.212Z,168.75
2018-06-15T10:19:05.167Z,168.75
2018-06-15T10:20:05.112Z,163.13
2018-06-15T10:21:05.069Z,157.50
2018-06-15T10:22:05.013Z,163.13
2018-06-15T10:23:04.962Z,157.50
2018-06-15T10:24:04.915Z,157.50
2018-06-15T10:25:04.867Z,157.50
2018-06-15T10:26:04.815Z,163.13
2018-06-15T10:27:04.767Z,163.13
2018-06-15T10:28:04.717Z,163.13
2018-06-15T10:29:04.668Z,163.13
2018-06-15T10:30:04.618Z,157.50
2018-06-15T10:31:04.566Z,157.50
2018-06-15T10:32:04.518Z,157.50
2018-06-15T10:33:04.508Z,151.88
2018-06-15T10:34:04.421Z,163.13
2018-06-15T10:35:04.370Z,157.50
2018-06-15T10:36:04.320Z,157.50
2018-06-15T10:37:04.274Z,157.50
2018-06-15T10:38:04.249Z,157.50
2018-06-15T10:39:04.171Z,157.50
2018-06-15T10:40:04.122Z,151.88
2018-06-15T10:41:04.075Z,157.50
2018-06-15T10:42:04.028Z,157.50
2018-06-15T10:43:03.977Z,157.50
2018-06-15T10:44:03.926Z,157.50
2018-06-15T10:45:03.878Z,163.13
2018-06-15T10:46:03.828Z,157.50
2018-06-15T10:47:03.780Z,163.13
2018-06-15T10:48:03.731Z,163.13
2018-06-15T10:49:03.681Z,163.13
2018-06-15T10:50:03.632Z,163.13
2018-06-15T10:51:03.582Z,151.88
2018-06-15T10:52:03.534Z,157.50
2018-06-15T10:53:03.485Z,146.25
2018-06-15T10:54:03.437Z,146.25
2018-06-15T10:55:03.388Z,140.63
2018-06-15T10:56:03.337Z,146.25
2018-06-15T10:57:03.290Z,135.00
2018-06-15T10:58:03.243Z,135.00
2018-06-15T10:59:03.191Z,135.00
2018-06-15T11:00:03.150Z,129.38
2018-06-15T11:01:03.095Z,129.38
2018-06-15T11:02:03.049Z,140.63
2018-06-15T11:03:02.997Z,135.00
2018-06-15T11:04:02.948Z,135.00
2018-06-15T11:05:02.900Z,129.38
2018-06-15T11:06:02.851Z,129.38
2018-06-15T11:07:02.801Z,129.38
2018-06-15T11:08:02.755Z,129.38
2018-06-15T11:09:02.756Z,123.75
2018-06-15T11:10:02.655Z,129.38
2018-06-15T11:11:02.607Z,135.00
2018-06-15T11:12:02.556Z,135.00
2018-06-15T11:13:02.508Z,129.38
2018-06-15T11:14:02.460Z,135.00
2018-06-15T11:15:02.410Z,135.00
2018-06-15T11:16:02.364Z,140.63
2018-06-15T11:17:02.319Z,135.00
2018-06-15T11:18:02.265Z,129.38
2018-06-15T11:19:02.215Z,129.38
2018-06-15T11:20:02.172Z,123.75
2018-06-15T11:21:02.118Z,129.38
2018-06-15T11:22:02.081Z,123.75
2018-06-15T11:23:02.019Z,123.75
2018-06-15T11:24:01.977Z,123.75
2018-06-15T11:25:01.924Z,129.38
2018-06-15T11:26:01.878Z,140.63
2018-06-15T11:27:01.827Z,140.63
2018-06-15T11:28:01.785Z,146.25
2018-06-15T11:29:01.739Z,140.63
2018-06-15T11:30:01.681Z,151.88
2018-06-15T11:31:01.650Z,146.25
2018-06-15T11:32:01.584Z,140.63
2018-06-15T11:33:01.535Z,146.25
2018-06-15T11:34:01.487Z,151.88
2018-06-15T11:35:01.439Z,151.88
2018-06-15T11:36:01.390Z,151.88
2018-06-15T11:37:01.341Z,146.25
2018-06-15T11:38:01.294Z,146.25
2018-06-15T11:39:01.246Z,140.63
2018-06-15T11:40:01.196Z,135.00
2018-06-15T11:41:01.237Z,135.00
2018-06-15T11:42:01.100Z,135.00
2018-06-15T11:43:01.050Z,135.00
2018-06-15T11:44:01.030Z,135.00
2018-06-15T11:45:00.958Z,129.38
2018-06-15T11:46:00.906Z,129.38
2018-06-15T11:47:00.857Z,129.38
2018-06-15T11:48:00.820Z,135.00
2018-06-15T11:49:00.761Z,135.00
2018-06-15T11:50:00.713Z,135.00
2018-06-15T11:51:00.665Z,129.38
2018-06-15T11:52:00.617Z,129.38
2018-06-15T11:53:00.568Z,123.75
2018-06-15T11:54:00.521Z,112.50
2018-06-15T11:55:00.481Z,118.13
2018-06-15T11:56:00.423Z,129.38
2018-06-15T11:57:00.375Z,118.13
2018-06-15T11:58:00.329Z,123.75
2018-06-15T11:59:00.279Z,123.75
2018-06-15T12:00:00.232Z,106.88
2018-06-15T12:01:00.183Z,106.88
2018-06-15T12:02:00.139Z,106.88
2018-06-15T12:03:00.089Z,112.50
2018-06-15T12:04:00.039Z,129.38
2018-06-15T12:04:59.999Z,140.63
2018-06-15T12:05:59.940Z,140.63
2018-06-15T12:06:59.894Z,140.63
2018-06-15T12:07:59.843Z,140.63
2018-06-15T12:08:59.795Z,140.63
2018-06-15T12:09:59.747Z,140.63
2018-06-15T12:10:59.698Z,140.63
2018-06-15T12:11:59.650Z,140.63
2018-06-15T12:12:59.600Z,140.63
2018-06-15T12:13:59.555Z,140.63
2018-06-15T12:14:59.503Z,146.25
2018-06-15T12:15:59.456Z,146.25
2018-06-15T12:16:59.407Z,146.25
2018-06-15T12:17:59.361Z,146.25
2018-06-15T12:18:59.311Z,146.25
2018-06-15T12:19:59.264Z,146.25
2018-06-15T12:20:59.219Z,146.25
2018-06-15T12:21:59.168Z,146.25
2018-06-15T12:22:59.128Z,135.00
2018-06-15T12:23:59.072Z,135.00
2018-06-15T12:24:59.027Z,135.00
2018-06-15T12:25:58.979Z,123.75
2018-06-15T12:26:58.929Z,129.38
2018-06-15T12:27:58.886Z,123.75
2018-06-15T12:28:58.837Z,123.75
2018-06-15T12:29:58.788Z,129.38
2018-06-15T12:30:58.743Z,129.38
2018-06-15T12:31:58.693Z,123.75
2018-06-15T12:32:58.646Z,123.75
2018-06-15T12:33:58.602Z,118.13
2018-06-15T12:34:58.553Z,129.38
2018-06-15T12:35:58.506Z,129.38
2018-06-15T12:36:58.461Z,129.38
2018-06-15T12:37:58.409Z,129.38
2018-06-15T12:38:58.361Z,135.00
2018-06-15T12:39:58.317Z,135.00
2018-06-15T12:40:58.268Z,135.00
2018-06-15T12:41:58.219Z,135.00
2018-06-15T12:42:58.179Z,135.00
2018-06-15T12:43:58.123Z,135.00
2018-06-15T12:44:58.085Z,135.00
2018-06-15T12:45:58.077Z,129.38